Portada
METAR-TAF:

METAR-TAF

Aeroports :

Taiyuan, Xina

latitud: 37-47N, longitud: 112-33E, altitud: 779 m

Observació

L'informe es va fer fa 51 minuts, a les 04:30 UTC
Vent 6 kt del Sud/Sud-Oest, variant entre Sud i Oest
Temperatura 4°C
Humitat 28%
Pressió 1025 hPa
Visibilitat 10 km o més
sense núvols per sota de 1500 mi sense presència de cumulonimbus.

METAR: ZBYN 060430Z 21003MPS 180V270 CAVOK 04/M13 Q1025 NOSIG

Hora: 13:21 (05:21 UTC)

Pronòstic

L'informe es va fer fa 8 hores i 20 minuts, a les 21:01 UTC
Pronòstic vàlid del 06 a les 00 UTC al 06 a les 24 UTC
Vent 8 kt del Nord-Oest
Visibilitat: 6000 m

TAF: ZBYN 052101Z 0600/0624 31004MPS 6000 NSC TX05/0607Z TNM07/0622Z

Observacions i pronòstics meteorològics de més de 4000 aeroports (METAR i TAF).

Les estacions disponibles són els punts grocs i vermells al mapa.

Posi el ratolí al punt desitjat per veure el nom de l'estació.

Feu clic per veure les observacions i els pronòstics meteorològics.

Per canviar el mapa: feu clic els botons verds amb una creu de color negre per apropar; al botó verd amb un guió per allunyar la imatge; o en les fletxes verdes per a mapes adjacents.


METAR-TAF: